sensor_id;sensor_type;location;lat;lon;timestamp;temperature;humidity
43185;DHT22;28803;52.308;19.096;2022-12-16T00:02:09;-7.30;99.90
43185;DHT22;28803;52.308;19.096;2022-12-16T00:04:36;-7.20;99.90
43185;DHT22;28803;52.308;19.096;2022-12-16T00:07:03;-7.20;99.90
43185;DHT22;28803;52.308;19.096;2022-12-16T00:09:31;-7.20;99.90
43185;DHT22;28803;52.308;19.096;2022-12-16T00:11:58;-7.20;99.90
43185;DHT22;28803;52.308;19.096;2022-12-16T00:14:25;-7.10;99.90
43185;DHT22;28803;52.308;19.096;2022-12-16T00:16:54;-7.10;99.90
43185;DHT22;28803;52.308;19.096;2022-12-16T00:19:21;-7.10;99.90
43185;DHT22;28803;52.308;19.096;2022-12-16T00:21:48;-7.10;99.90
43185;DHT22;28803;52.308;19.096;2022-12-16T00:24:17;-7.10;99.90
43185;DHT22;28803;52.308;19.096;2022-12-16T00:26:44;-7.10;99.90
43185;DHT22;28803;52.308;19.096;2022-12-16T00:29:12;-7.10;99.90
43185;DHT22;28803;52.308;19.096;2022-12-16T00:31:39;-7.00;99.90
43185;DHT22;28803;52.308;19.096;2022-12-16T00:34:06;-7.00;99.90
43185;DHT22;28803;52.308;19.096;2022-12-16T00:36:33;-7.00;99.90
43185;DHT22;28803;52.308;19.096;2022-12-16T00:39:01;-7.00;99.90
43185;DHT22;28803;52.308;19.096;2022-12-16T00:41:28;-7.00;99.90
43185;DHT22;28803;52.308;19.096;2022-12-16T00:43:55;-7.00;99.90
43185;DHT22;28803;52.308;19.096;2022-12-16T00:46:22;-7.00;99.90
43185;DHT22;28803;52.308;19.096;2022-12-16T00:48:50;-6.90;99.90
43185;DHT22;28803;52.308;19.096;2022-12-16T00:51:17;-6.90;99.90
43185;DHT22;28803;52.308;19.096;2022-12-16T00:53:45;-6.90;99.90
43185;DHT22;28803;52.308;19.096;2022-12-16T00:56:12;-6.90;99.90
43185;DHT22;28803;52.308;19.096;2022-12-16T00:58:40;-6.90;99.90
43185;DHT22;28803;52.308;19.096;2022-12-16T01:01:07;-6.80;99.90
43185;DHT22;28803;52.308;19.096;2022-12-16T01:03:35;-6.80;99.90
43185;DHT22;28803;52.308;19.096;2022-12-16T01:06:11;-6.70;99.90
43185;DHT22;28803;52.308;19.096;2022-12-16T01:08:39;-6.70;99.90
43185;DHT22;28803;52.308;19.096;2022-12-16T01:11:06;-6.70;99.90
43185;DHT22;28803;52.308;19.096;2022-12-16T01:13:35;-6.70;99.90
43185;DHT22;28803;52.308;19.096;2022-12-16T01:16:02;-6.60;99.90
43185;DHT22;28803;52.308;19.096;2022-12-16T01:18:30;-6.60;99.90
43185;DHT22;28803;52.308;19.096;2022-12-16T01:21:05;-6.60;99.90
43185;DHT22;28803;52.308;19.096;2022-12-16T01:23:33;-6.50;99.90
43185;DHT22;28803;52.308;19.096;2022-12-16T01:26:01;-6.40;99.90
43185;DHT22;28803;52.308;19.096;2022-12-16T01:28:29;-6.40;99.90
43185;DHT22;28803;52.308;19.096;2022-12-16T01:31:00;-6.40;99.90
43185;DHT22;28803;52.308;19.096;2022-12-16T01:33:29;-6.40;99.90
43185;DHT22;28803;52.308;19.096;2022-12-16T01:36:02;-6.40;99.90
43185;DHT22;28803;52.308;19.096;2022-12-16T01:38:30;-6.40;99.90
43185;DHT22;28803;52.308;19.096;2022-12-16T01:40:58;-6.40;99.90
43185;DHT22;28803;52.308;19.096;2022-12-16T01:43:32;-6.30;99.90
43185;DHT22;28803;52.308;19.096;2022-12-16T01:48:50;-6.40;99.90
43185;DHT22;28803;52.308;19.096;2022-12-16T01:53:56;-6.40;99.90
43185;DHT22;28803;52.308;19.096;2022-12-16T01:56:27;-6.40;99.90
43185;DHT22;28803;52.308;19.096;2022-12-16T01:58:57;-6.50;99.90
43185;DHT22;28803;52.308;19.096;2022-12-16T02:01:25;-6.50;99.90
43185;DHT22;28803;52.308;19.096;2022-12-16T02:03:54;-6.50;99.90
43185;DHT22;28803;52.308;19.096;2022-12-16T02:06:24;-6.50;99.90
43185;DHT22;28803;52.308;19.096;2022-12-16T02:08:55;-6.50;99.90
43185;DHT22;28803;52.308;19.096;2022-12-16T02:16:44;-6.40;99.90
43185;DHT22;28803;52.308;19.096;2022-12-16T02:25:16;-6.40;99.90
43185;DHT22;28803;52.308;19.096;2022-12-16T02:28:06;-6.40;99.90
43185;DHT22;28803;52.308;19.096;2022-12-16T02:31:00;-6.30;99.90
43185;DHT22;28803;52.308;19.096;2022-12-16T02:36:38;-6.20;99.90
43185;DHT22;28803;52.308;19.096;2022-12-16T02:39:09;-6.20;99.90
43185;DHT22;28803;52.308;19.096;2022-12-16T02:41:58;-6.20;99.90
43185;DHT22;28803;52.308;19.096;2022-12-16T02:44:40;-6.20;99.90
43185;DHT22;28803;52.308;19.096;2022-12-16T02:47:10;-6.20;99.90
43185;DHT22;28803;52.308;19.096;2022-12-16T02:49:44;-6.20;99.90
43185;DHT22;28803;52.308;19.096;2022-12-16T02:52:12;-6.10;99.90
43185;DHT22;28803;52.308;19.096;2022-12-16T02:54:39;-6.10;99.90
43185;DHT22;28803;52.308;19.096;2022-12-16T02:57:14;-6.10;99.90
43185;DHT22;28803;52.308;19.096;2022-12-16T03:00:07;-6.10;99.90
43185;DHT22;28803;52.308;19.096;2022-12-16T03:03:00;-6.00;99.90
43185;DHT22;28803;52.308;19.096;2022-12-16T03:05:35;-6.00;99.90
43185;DHT22;28803;52.308;19.096;2022-12-16T03:08:08;-6.00;99.90
43185;DHT22;28803;52.308;19.096;2022-12-16T03:10:49;-5.90;99.90
43185;DHT22;28803;52.308;19.096;2022-12-16T03:13:18;-6.10;99.90
43185;DHT22;28803;52.308;19.096;2022-12-16T03:15:49;-6.20;99.90
43185;DHT22;28803;52.308;19.096;2022-12-16T03:18:20;-6.20;99.90
43185;DHT22;28803;52.308;19.096;2022-12-16T03:20:58;-6.30;99.90
43185;DHT22;28803;52.308;19.096;2022-12-16T03:23:46;-6.40;99.90
43185;DHT22;28803;52.308;19.096;2022-12-16T03:26:43;-6.40;99.90
43185;DHT22;28803;52.308;19.096;2022-12-16T03:29:14;-6.50;99.90
43185;DHT22;28803;52.308;19.096;2022-12-16T03:31:46;-6.50;99.90
43185;DHT22;28803;52.308;19.096;2022-12-16T03:34:31;-6.60;99.90
43185;DHT22;28803;52.308;19.096;2022-12-16T03:37:04;-6.70;99.90
43185;DHT22;28803;52.308;19.096;2022-12-16T03:39:36;-6.70;99.90
43185;DHT22;28803;52.308;19.096;2022-12-16T03:42:05;-6.70;99.90
43185;DHT22;28803;52.308;19.096;2022-12-16T03:44:34;-6.70;99.90
43185;DHT22;28803;52.308;19.096;2022-12-16T03:47:01;-6.60;99.90
43185;DHT22;28803;52.308;19.096;2022-12-16T03:49:29;-6.60;99.90
43185;DHT22;28803;52.308;19.096;2022-12-16T03:51:56;-6.60;99.90
43185;DHT22;28803;52.308;19.096;2022-12-16T03:54:23;-6.50;99.90
43185;DHT22;28803;52.308;19.096;2022-12-16T03:56:50;-6.40;99.90
43185;DHT22;28803;52.308;19.096;2022-12-16T03:59:18;-6.30;99.90
43185;DHT22;28803;52.308;19.096;2022-12-16T04:01:45;-6.30;99.90
43185;DHT22;28803;52.308;19.096;2022-12-16T04:04:13;-6.30;99.90
43185;DHT22;28803;52.308;19.096;2022-12-16T04:06:39;-6.20;99.90
43185;DHT22;28803;52.308;19.096;2022-12-16T04:09:07;-6.10;99.90
43185;DHT22;28803;52.308;19.096;2022-12-16T04:11:34;-6.10;99.90
43185;DHT22;28803;52.308;19.096;2022-12-16T04:14:20;-6.10;99.90
43185;DHT22;28803;52.308;19.096;2022-12-16T04:17:09;-6.10;99.90
43185;DHT22;28803;52.308;19.096;2022-12-16T04:19:56;-6.10;99.90
43185;DHT22;28803;52.308;19.096;2022-12-16T04:22:42;-6.10;99.90
43185;DHT22;28803;52.308;19.096;2022-12-16T04:25:34;-6.00;99.90
43185;DHT22;28803;52.308;19.096;2022-12-16T04:28:02;-6.00;99.90
43185;DHT22;28803;52.308;19.096;2022-12-16T04:30:30;-6.00;99.90
43185;DHT22;28803;52.308;19.096;2022-12-16T04:33:07;-5.90;99.90
43185;DHT22;28803;52.308;19.096;2022-12-16T04:35:54;-5.90;99.90
43185;DHT22;28803;52.308;19.096;2022-12-16T04:38:39;-5.90;99.90
43185;DHT22;28803;52.308;19.096;2022-12-16T04:41:25;-5.90;99.90
43185;DHT22;28803;52.308;19.096;2022-12-16T04:44:11;-5.90;99.90
43185;DHT22;28803;52.308;19.096;2022-12-16T04:46:57;-5.90;99.90
43185;DHT22;28803;52.308;19.096;2022-12-16T04:49:42;-5.90;99.90
43185;DHT22;28803;52.308;19.096;2022-12-16T04:52:28;-5.90;99.90
43185;DHT22;28803;52.308;19.096;2022-12-16T04:55:13;-5.90;99.90
43185;DHT22;28803;52.308;19.096;2022-12-16T04:58:00;-6.00;99.90
43185;DHT22;28803;52.308;19.096;2022-12-16T05:00:47;-6.00;99.90
43185;DHT22;28803;52.308;19.096;2022-12-16T05:03:34;-6.00;99.90
43185;DHT22;28803;52.308;19.096;2022-12-16T05:06:20;-6.00;99.90
43185;DHT22;28803;52.308;19.096;2022-12-16T05:09:06;-6.00;99.90
43185;DHT22;28803;52.308;19.096;2022-12-16T05:11:52;-6.00;99.90
43185;DHT22;28803;52.308;19.096;2022-12-16T05:14:37;-5.90;99.90
43185;DHT22;28803;52.308;19.096;2022-12-16T05:17:23;-5.90;99.90
43185;DHT22;28803;52.308;19.096;2022-12-16T05:20:09;-5.90;99.90
43185;DHT22;28803;52.308;19.096;2022-12-16T05:22:55;-5.90;99.90
43185;DHT22;28803;52.308;19.096;2022-12-16T05:25:42;-5.80;99.90
43185;DHT22;28803;52.308;19.096;2022-12-16T05:28:28;-5.80;99.90
43185;DHT22;28803;52.308;19.096;2022-12-16T05:31:14;-5.80;99.90
43185;DHT22;28803;52.308;19.096;2022-12-16T05:34:00;-5.80;99.90
43185;DHT22;28803;52.308;19.096;2022-12-16T05:36:46;-5.80;99.90
43185;DHT22;28803;52.308;19.096;2022-12-16T05:39:32;-5.70;99.90
43185;DHT22;28803;52.308;19.096;2022-12-16T05:42:18;-5.80;99.90
43185;DHT22;28803;52.308;19.096;2022-12-16T05:45:04;-5.70;99.90
43185;DHT22;28803;52.308;19.096;2022-12-16T05:47:50;-5.70;99.90
43185;DHT22;28803;52.308;19.096;2022-12-16T05:50:36;-5.60;99.90
43185;DHT22;28803;52.308;19.096;2022-12-16T05:53:22;-5.60;99.90
43185;DHT22;28803;52.308;19.096;2022-12-16T05:56:08;-5.60;99.90
43185;DHT22;28803;52.308;19.096;2022-12-16T05:58:53;-5.60;99.90
43185;DHT22;28803;52.308;19.096;2022-12-16T06:01:39;-5.60;99.90
43185;DHT22;28803;52.308;19.096;2022-12-16T06:04:27;-5.60;99.90
43185;DHT22;28803;52.308;19.096;2022-12-16T06:07:33;-5.50;99.90
43185;DHT22;28803;52.308;19.096;2022-12-16T06:10:19;-5.50;99.90
43185;DHT22;28803;52.308;19.096;2022-12-16T06:13:04;-5.50;99.90
43185;DHT22;28803;52.308;19.096;2022-12-16T06:15:50;-5.50;99.90
43185;DHT22;28803;52.308;19.096;2022-12-16T06:18:36;-5.50;99.90
43185;DHT22;28803;52.308;19.096;2022-12-16T06:21:22;-5.50;99.90
43185;DHT22;28803;52.308;19.096;2022-12-16T06:24:08;-5.50;99.90
43185;DHT22;28803;52.308;19.096;2022-12-16T06:26:54;-5.50;99.90
43185;DHT22;28803;52.308;19.096;2022-12-16T06:29:40;-5.50;99.90
43185;DHT22;28803;52.308;19.096;2022-12-16T06:32:26;-5.40;99.90
43185;DHT22;28803;52.308;19.096;2022-12-16T06:35:11;-5.40;99.90
43185;DHT22;28803;52.308;19.096;2022-12-16T06:37:57;-5.40;99.90
43185;DHT22;28803;52.308;19.096;2022-12-16T06:40:43;-5.40;99.90
43185;DHT22;28803;52.308;19.096;2022-12-16T06:43:29;-5.40;99.90
43185;DHT22;28803;52.308;19.096;2022-12-16T06:46:14;-5.30;99.90
43185;DHT22;28803;52.308;19.096;2022-12-16T06:49:00;-5.30;99.90
43185;DHT22;28803;52.308;19.096;2022-12-16T06:51:46;-5.30;99.90
43185;DHT22;28803;52.308;19.096;2022-12-16T06:54:32;-5.30;99.90
43185;DHT22;28803;52.308;19.096;2022-12-16T06:57:18;-5.30;99.90
43185;DHT22;28803;52.308;19.096;2022-12-16T07:00:04;-5.30;99.90
43185;DHT22;28803;52.308;19.096;2022-12-16T07:02:49;-5.30;99.90
43185;DHT22;28803;52.308;19.096;2022-12-16T07:05:35;-5.30;99.90
43185;DHT22;28803;52.308;19.096;2022-12-16T07:08:21;-5.30;99.90
43185;DHT22;28803;52.308;19.096;2022-12-16T07:11:07;-5.20;99.90
43185;DHT22;28803;52.308;19.096;2022-12-16T07:13:53;-5.20;99.90
43185;DHT22;28803;52.308;19.096;2022-12-16T07:16:39;-5.20;99.90
43185;DHT22;28803;52.308;19.096;2022-12-16T07:19:26;-5.20;99.90
43185;DHT22;28803;52.308;19.096;2022-12-16T07:22:12;-5.20;99.90
43185;DHT22;28803;52.308;19.096;2022-12-16T07:24:58;-5.30;99.90
43185;DHT22;28803;52.308;19.096;2022-12-16T07:27:45;-5.30;99.90
43185;DHT22;28803;52.308;19.096;2022-12-16T07:30:42;-5.30;99.90
43185;DHT22;28803;52.308;19.096;2022-12-16T07:33:27;-5.30;99.90
43185;DHT22;28803;52.308;19.096;2022-12-16T07:36:13;-5.30;99.90
43185;DHT22;28803;52.308;19.096;2022-12-16T07:38:59;-5.30;99.90
43185;DHT22;28803;52.308;19.096;2022-12-16T07:41:44;-5.30;99.90
43185;DHT22;28803;52.308;19.096;2022-12-16T07:44:31;-5.30;99.90
43185;DHT22;28803;52.308;19.096;2022-12-16T07:47:16;-5.20;99.90
43185;DHT22;28803;52.308;19.096;2022-12-16T07:50:02;-5.20;99.90
43185;DHT22;28803;52.308;19.096;2022-12-16T07:52:56;-5.10;99.90
43185;DHT22;28803;52.308;19.096;2022-12-16T07:55:42;-5.00;99.90
43185;DHT22;28803;52.308;19.096;2022-12-16T07:58:28;-4.80;99.90
43185;DHT22;28803;52.308;19.096;2022-12-16T08:01:14;-4.90;99.90
43185;DHT22;28803;52.308;19.096;2022-12-16T08:04:00;-4.80;99.90
43185;DHT22;28803;52.308;19.096;2022-12-16T08:06:46;-4.80;99.90
43185;DHT22;28803;52.308;19.096;2022-12-16T08:09:32;-4.80;99.90
43185;DHT22;28803;52.308;19.096;2022-12-16T08:12:17;-4.80;99.90
43185;DHT22;28803;52.308;19.096;2022-12-16T08:15:03;-4.70;99.90
43185;DHT22;28803;52.308;19.096;2022-12-16T08:17:50;-4.80;99.90
43185;DHT22;28803;52.308;19.096;2022-12-16T08:20:36;-4.90;99.90
43185;DHT22;28803;52.308;19.096;2022-12-16T08:23:22;-4.90;99.90
43185;DHT22;28803;52.308;19.096;2022-12-16T08:26:08;-4.90;99.90
43185;DHT22;28803;52.308;19.096;2022-12-16T08:28:54;-4.90;99.90
43185;DHT22;28803;52.308;19.096;2022-12-16T08:32:00;-5.00;99.90
43185;DHT22;28803;52.308;19.096;2022-12-16T08:34:46;-5.00;99.90
43185;DHT22;28803;52.308;19.096;2022-12-16T08:37:31;-5.00;99.90
43185;DHT22;28803;52.308;19.096;2022-12-16T08:40:18;-4.90;99.90
43185;DHT22;28803;52.308;19.096;2022-12-16T08:43:04;-5.00;99.90
43185;DHT22;28803;52.308;19.096;2022-12-16T08:45:52;-5.00;99.90
43185;DHT22;28803;52.308;19.096;2022-12-16T08:48:38;-5.00;99.90
43185;DHT22;28803;52.308;19.096;2022-12-16T08:51:24;-5.00;99.90
43185;DHT22;28803;52.308;19.096;2022-12-16T08:54:10;-4.90;99.90
43185;DHT22;28803;52.308;19.096;2022-12-16T08:56:56;-5.00;99.90
43185;DHT22;28803;52.308;19.096;2022-12-16T08:59:42;-5.00;99.90
43185;DHT22;28803;52.308;19.096;2022-12-16T09:02:28;-5.00;99.90
43185;DHT22;28803;52.308;19.096;2022-12-16T09:05:14;-5.00;99.90
43185;DHT22;28803;52.308;19.096;2022-12-16T09:08:01;-4.90;99.90
43185;DHT22;28803;52.308;19.096;2022-12-16T09:10:47;-4.90;99.90
43185;DHT22;28803;52.308;19.096;2022-12-16T09:13:32;-4.90;99.90
43185;DHT22;28803;52.308;19.096;2022-12-16T09:16:18;-4.90;99.90
43185;DHT22;28803;52.308;19.096;2022-12-16T09:19:04;-4.90;99.90
43185;DHT22;28803;52.308;19.096;2022-12-16T09:21:50;-4.90;99.90
43185;DHT22;28803;52.308;19.096;2022-12-16T09:24:35;-4.90;99.90
43185;DHT22;28803;52.308;19.096;2022-12-16T09:27:21;-4.80;99.90
43185;DHT22;28803;52.308;19.096;2022-12-16T09:30:08;-4.70;99.90
43185;DHT22;28803;52.308;19.096;2022-12-16T09:32:54;-4.70;99.90
43185;DHT22;28803;52.308;19.096;2022-12-16T09:35:40;-4.80;99.90
43185;DHT22;28803;52.308;19.096;2022-12-16T09:38:26;-4.60;99.90
43185;DHT22;28803;52.308;19.096;2022-12-16T09:41:34;-4.60;99.90
43185;DHT22;28803;52.308;19.096;2022-12-16T09:50:35;-4.60;99.90
43185;DHT22;28803;52.308;19.096;2022-12-16T09:53:24;-4.60;99.90
43185;DHT22;28803;52.308;19.096;2022-12-16T09:56:16;-4.60;99.90
43185;DHT22;28803;52.308;19.096;2022-12-16T09:59:10;-4.60;99.90
43185;DHT22;28803;52.308;19.096;2022-12-16T10:01:58;-4.60;99.90
43185;DHT22;28803;52.308;19.096;2022-12-16T10:04:49;-4.60;99.90
43185;DHT22;28803;52.308;19.096;2022-12-16T10:07:39;-4.50;99.90
43185;DHT22;28803;52.308;19.096;2022-12-16T10:13:36;-4.40;99.90
43185;DHT22;28803;52.308;19.096;2022-12-16T10:16:51;-4.30;99.90
43185;DHT22;28803;52.308;19.096;2022-12-16T10:20:05;-4.20;99.90
43185;DHT22;28803;52.308;19.096;2022-12-16T10:23:08;-4.10;99.90
43185;DHT22;28803;52.308;19.096;2022-12-16T10:26:01;-4.00;99.90
43185;DHT22;28803;52.308;19.096;2022-12-16T10:28:53;-4.00;99.90
43185;DHT22;28803;52.308;19.096;2022-12-16T10:31:42;-3.90;99.90
43185;DHT22;28803;52.308;19.096;2022-12-16T10:34:30;-3.80;99.90
43185;DHT22;28803;52.308;19.096;2022-12-16T10:37:30;-3.90;99.90
43185;DHT22;28803;52.308;19.096;2022-12-16T10:40:20;-3.90;99.90
43185;DHT22;28803;52.308;19.096;2022-12-16T10:43:20;-3.90;99.90
43185;DHT22;28803;52.308;19.096;2022-12-16T10:46:11;-3.90;99.90
43185;DHT22;28803;52.308;19.096;2022-12-16T10:48:59;-3.90;99.90
43185;DHT22;28803;52.308;19.096;2022-12-16T10:51:45;-4.00;99.90
43185;DHT22;28803;52.308;19.096;2022-12-16T10:54:41;-3.90;99.90
43185;DHT22;28803;52.308;19.096;2022-12-16T11:00:48;-4.00;99.90
43185;DHT22;28803;52.308;19.096;2022-12-16T11:03:36;-3.90;99.90
43185;DHT22;28803;52.308;19.096;2022-12-16T11:06:35;-3.80;99.90
43185;DHT22;28803;52.308;19.096;2022-12-16T11:09:27;-3.70;99.90
43185;DHT22;28803;52.308;19.096;2022-12-16T11:12:20;-3.60;99.90
43185;DHT22;28803;52.308;19.096;2022-12-16T11:15:25;-3.60;99.90
43185;DHT22;28803;52.308;19.096;2022-12-16T11:18:16;-3.70;99.90
43185;DHT22;28803;52.308;19.096;2022-12-16T11:21:22;-3.70;99.90
43185;DHT22;28803;52.308;19.096;2022-12-16T11:24:19;-3.80;99.90
43185;DHT22;28803;52.308;19.096;2022-12-16T11:30:14;-3.90;99.90
43185;DHT22;28803;52.308;19.096;2022-12-16T11:33:13;-3.90;99.90
43185;DHT22;28803;52.308;19.096;2022-12-16T11:38:57;-3.90;99.90
43185;DHT22;28803;52.308;19.096;2022-12-16T11:41:49;-3.90;99.90
43185;DHT22;28803;52.308;19.096;2022-12-16T11:44:47;-3.90;99.90
43185;DHT22;28803;52.308;19.096;2022-12-16T11:48:04;-3.80;99.90
43185;DHT22;28803;52.308;19.096;2022-12-16T11:50:52;-3.80;99.90
43185;DHT22;28803;52.308;19.096;2022-12-16T11:53:48;-3.80;99.90
43185;DHT22;28803;52.308;19.096;2022-12-16T11:56:39;-3.80;99.90
43185;DHT22;28803;52.308;19.096;2022-12-16T11:59:40;-3.70;99.90
43185;DHT22;28803;52.308;19.096;2022-12-16T12:05:50;-3.70;99.90
43185;DHT22;28803;52.308;19.096;2022-12-16T12:08:52;-3.80;99.90
43185;DHT22;28803;52.308;19.096;2022-12-16T12:11:55;-3.90;99.90
43185;DHT22;28803;52.308;19.096;2022-12-16T12:14:52;-3.90;99.90
43185;DHT22;28803;52.308;19.096;2022-12-16T12:17:51;-3.90;99.90
43185;DHT22;28803;52.308;19.096;2022-12-16T12:23:45;-3.80;99.90
43185;DHT22;28803;52.308;19.096;2022-12-16T12:26:37;-3.80;99.90
43185;DHT22;28803;52.308;19.096;2022-12-16T12:29:57;-3.70;99.90
43185;DHT22;28803;52.308;19.096;2022-12-16T12:48:05;-3.90;99.90
43185;DHT22;28803;52.308;19.096;2022-12-16T12:57:01;-4.00;99.90
43185;DHT22;28803;52.308;19.096;2022-12-16T12:59:59;-4.00;99.90
43185;DHT22;28803;52.308;19.096;2022-12-16T13:06:13;-3.90;99.90
43185;DHT22;28803;52.308;19.096;2022-12-16T13:08:59;-4.00;99.90
43185;DHT22;28803;52.308;19.096;2022-12-16T13:18:28;-4.00;99.90
43185;DHT22;28803;52.308;19.096;2022-12-16T13:27:13;-4.10;99.90
43185;DHT22;28803;52.308;19.096;2022-12-16T13:33:28;-4.10;99.90
43185;DHT22;28803;52.308;19.096;2022-12-16T13:36:08;-4.10;99.90
43185;DHT22;28803;52.308;19.096;2022-12-16T13:38:56;-4.00;99.90
43185;DHT22;28803;52.308;19.096;2022-12-16T13:50:39;-4.00;99.90
43185;DHT22;28803;52.308;19.096;2022-12-16T13:53:27;-4.00;99.90
43185;DHT22;28803;52.308;19.096;2022-12-16T13:56:19;-4.10;99.90
43185;DHT22;28803;52.308;19.096;2022-12-16T13:59:16;-4.00;99.90
43185;DHT22;28803;52.308;19.096;2022-12-16T14:02:27;-4.00;99.90
43185;DHT22;28803;52.308;19.096;2022-12-16T14:05:26;-4.00;99.90
43185;DHT22;28803;52.308;19.096;2022-12-16T14:08:23;-4.00;99.90
43185;DHT22;28803;52.308;19.096;2022-12-16T14:11:24;-4.00;99.90
43185;DHT22;28803;52.308;19.096;2022-12-16T14:14:18;-4.00;99.90
43185;DHT22;28803;52.308;19.096;2022-12-16T14:17:15;-4.00;99.90
43185;DHT22;28803;52.308;19.096;2022-12-16T14:20:15;-4.00;99.90
43185;DHT22;28803;52.308;19.096;2022-12-16T14:26:27;-4.10;99.90
43185;DHT22;28803;52.308;19.096;2022-12-16T14:29:23;-4.10;99.90
43185;DHT22;28803;52.308;19.096;2022-12-16T14:32:28;-4.10;99.90
43185;DHT22;28803;52.308;19.096;2022-12-16T14:35:26;-4.10;99.90
43185;DHT22;28803;52.308;19.096;2022-12-16T14:38:29;-4.00;99.90
43185;DHT22;28803;52.308;19.096;2022-12-16T14:41:19;-4.10;99.90
43185;DHT22;28803;52.308;19.096;2022-12-16T14:44:22;-4.00;99.90
43185;DHT22;28803;52.308;19.096;2022-12-16T14:47:19;-4.00;99.90
43185;DHT22;28803;52.308;19.096;2022-12-16T14:50:27;-4.10;99.90
43185;DHT22;28803;52.308;19.096;2022-12-16T14:53:21;-4.00;99.90
43185;DHT22;28803;52.308;19.096;2022-12-16T14:56:17;-4.10;99.90
43185;DHT22;28803;52.308;19.096;2022-12-16T14:59:17;-4.10;99.90
43185;DHT22;28803;52.308;19.096;2022-12-16T15:02:28;-4.10;99.90
43185;DHT22;28803;52.308;19.096;2022-12-16T15:05:17;-4.10;99.90
43185;DHT22;28803;52.308;19.096;2022-12-16T15:08:03;-4.10;99.90
43185;DHT22;28803;52.308;19.096;2022-12-16T15:10:49;-4.10;99.90
43185;DHT22;28803;52.308;19.096;2022-12-16T15:13:36;-4.10;99.90
43185;DHT22;28803;52.308;19.096;2022-12-16T15:16:32;-4.00;99.90
43185;DHT22;28803;52.308;19.096;2022-12-16T15:19:23;-4.10;99.90
43185;DHT22;28803;52.308;19.096;2022-12-16T15:22:14;-4.10;99.90
43185;DHT22;28803;52.308;19.096;2022-12-16T15:25:01;-4.10;99.90
43185;DHT22;28803;52.308;19.096;2022-12-16T15:27:54;-4.10;99.90
43185;DHT22;28803;52.308;19.096;2022-12-16T15:30:45;-4.10;99.90
43185;DHT22;28803;52.308;19.096;2022-12-16T15:33:36;-4.10;99.90
43185;DHT22;28803;52.308;19.096;2022-12-16T15:36:31;-4.10;99.90
43185;DHT22;28803;52.308;19.096;2022-12-16T15:39:23;-4.10;99.90
43185;DHT22;28803;52.308;19.096;2022-12-16T15:42:24;-4.10;99.90
43185;DHT22;28803;52.308;19.096;2022-12-16T15:45:22;-4.10;99.90
43185;DHT22;28803;52.308;19.096;2022-12-16T15:48:22;-4.10;99.90
43185;DHT22;28803;52.308;19.096;2022-12-16T15:51:47;-4.10;99.90
43185;DHT22;28803;52.308;19.096;2022-12-16T15:54:48;-4.10;99.90
43185;DHT22;28803;52.308;19.096;2022-12-16T15:57:38;-4.00;99.90
43185;DHT22;28803;52.308;19.096;2022-12-16T16:00:29;-4.00;99.90
43185;DHT22;28803;52.308;19.096;2022-12-16T16:06:20;-4.10;99.90
43185;DHT22;28803;52.308;19.096;2022-12-16T16:09:25;-4.10;99.90
43185;DHT22;28803;52.308;19.096;2022-12-16T16:12:13;-4.00;99.90
43185;DHT22;28803;52.308;19.096;2022-12-16T16:14:59;-4.00;99.90
43185;DHT22;28803;52.308;19.096;2022-12-16T16:18:13;-4.00;99.90
43185;DHT22;28803;52.308;19.096;2022-12-16T16:20:57;-4.00;99.90
43185;DHT22;28803;52.308;19.096;2022-12-16T16:23:43;-4.00;99.90
43185;DHT22;28803;52.308;19.096;2022-12-16T16:26:29;-4.00;99.90
43185;DHT22;28803;52.308;19.096;2022-12-16T16:29:15;-3.90;99.90
43185;DHT22;28803;52.308;19.096;2022-12-16T16:32:00;-4.00;99.90
43185;DHT22;28803;52.308;19.096;2022-12-16T16:34:46;-3.90;99.90
43185;DHT22;28803;52.308;19.096;2022-12-16T16:37:32;-3.90;99.90
43185;DHT22;28803;52.308;19.096;2022-12-16T16:40:30;-3.90;99.90
43185;DHT22;28803;52.308;19.096;2022-12-16T16:43:16;-3.90;99.90
43185;DHT22;28803;52.308;19.096;2022-12-16T16:49:09;-3.90;99.90
43185;DHT22;28803;52.308;19.096;2022-12-16T16:51:55;-3.90;99.90
43185;DHT22;28803;52.308;19.096;2022-12-16T16:54:41;-3.80;99.90
43185;DHT22;28803;52.308;19.096;2022-12-16T16:57:28;-3.90;99.90
43185;DHT22;28803;52.308;19.096;2022-12-16T17:00:16;-3.90;99.90
43185;DHT22;28803;52.308;19.096;2022-12-16T17:03:03;-3.90;99.90
43185;DHT22;28803;52.308;19.096;2022-12-16T17:05:49;-3.80;99.90
43185;DHT22;28803;52.308;19.096;2022-12-16T17:08:35;-3.80;99.90
43185;DHT22;28803;52.308;19.096;2022-12-16T17:11:23;-3.80;99.90
43185;DHT22;28803;52.308;19.096;2022-12-16T17:14:18;-3.80;99.90
43185;DHT22;28803;52.308;19.096;2022-12-16T17:17:05;-3.80;99.90
43185;DHT22;28803;52.308;19.096;2022-12-16T17:19:51;-3.80;99.90
43185;DHT22;28803;52.308;19.096;2022-12-16T17:22:36;-3.80;99.90
43185;DHT22;28803;52.308;19.096;2022-12-16T17:25:22;-3.80;99.90
43185;DHT22;28803;52.308;19.096;2022-12-16T17:28:09;-3.80;99.90
43185;DHT22;28803;52.308;19.096;2022-12-16T17:30:57;-3.80;99.90
43185;DHT22;28803;52.308;19.096;2022-12-16T17:33:42;-3.80;99.90
43185;DHT22;28803;52.308;19.096;2022-12-16T17:36:29;-3.80;99.90
43185;DHT22;28803;52.308;19.096;2022-12-16T17:39:14;-3.80;99.90
43185;DHT22;28803;52.308;19.096;2022-12-16T17:42:00;-3.80;99.90
43185;DHT22;28803;52.308;19.096;2022-12-16T17:44:46;-3.80;99.90
43185;DHT22;28803;52.308;19.096;2022-12-16T17:47:32;-3.80;99.90
43185;DHT22;28803;52.308;19.096;2022-12-16T17:50:17;-3.80;99.90
43185;DHT22;28803;52.308;19.096;2022-12-16T17:53:03;-3.80;99.90
43185;DHT22;28803;52.308;19.096;2022-12-16T17:55:49;-3.80;99.90
43185;DHT22;28803;52.308;19.096;2022-12-16T17:58:37;-3.80;99.90
43185;DHT22;28803;52.308;19.096;2022-12-16T18:01:23;-3.80;99.90
43185;DHT22;28803;52.308;19.096;2022-12-16T18:04:08;-3.80;99.90
43185;DHT22;28803;52.308;19.096;2022-12-16T18:06:54;-3.80;99.90
43185;DHT22;28803;52.308;19.096;2022-12-16T18:09:41;-3.80;99.90
43185;DHT22;28803;52.308;19.096;2022-12-16T18:12:27;-3.80;99.90
43185;DHT22;28803;52.308;19.096;2022-12-16T18:15:13;-3.80;99.90
43185;DHT22;28803;52.308;19.096;2022-12-16T18:17:58;-3.80;99.90
43185;DHT22;28803;52.308;19.096;2022-12-16T18:20:44;-3.80;99.90
43185;DHT22;28803;52.308;19.096;2022-12-16T18:23:30;-3.80;99.90
43185;DHT22;28803;52.308;19.096;2022-12-16T18:26:16;-3.80;99.90
43185;DHT22;28803;52.308;19.096;2022-12-16T18:29:02;-3.80;99.90
43185;DHT22;28803;52.308;19.096;2022-12-16T18:31:48;-3.80;99.90
43185;DHT22;28803;52.308;19.096;2022-12-16T18:34:34;-3.80;99.90
43185;DHT22;28803;52.308;19.096;2022-12-16T18:37:20;-3.80;99.90
43185;DHT22;28803;52.308;19.096;2022-12-16T18:40:06;-3.80;99.90
43185;DHT22;28803;52.308;19.096;2022-12-16T18:42:52;-3.80;99.90
43185;DHT22;28803;52.308;19.096;2022-12-16T18:45:38;-3.80;99.90
43185;DHT22;28803;52.308;19.096;2022-12-16T18:48:24;-3.80;99.90
43185;DHT22;28803;52.308;19.096;2022-12-16T18:51:09;-3.80;99.90